Time;durP1;ratioP1;P1;durP2;ratioP2;P2;SDS_P1;SDS_P2;PMS_P1;PMS_P2;Temp;Humidity;BMP_temperature;BMP_pressure;BME280_temperature;BME280_humidity;BME280_pressure;Samples;Min_cycle;Max_cycle;Signal;HPM_P1;HPM_P2
2021/10/04 00:02:20;;;;;;;5.75;3.88;;;16.30;88.00;;;;;;5087652;28;20232;-88
2021/10/04 00:04:47;;;;;;;4.35;3.22;;;16.30;88.80;;;;;;5080519;28;20228;-89
2021/10/04 00:07:14;;;;;;;4.53;3.90;;;16.40;88.00;;;;;;5088917;28;20223;-88
2021/10/04 00:09:41;;;;;;;3.97;3.63;;;16.50;88.90;;;;;;5084349;28;20665;-88
2021/10/04 00:12:10;;;;;;;7.85;3.75;;;16.40;88.50;;;;;;5084858;28;20220;-88
2021/10/04 00:14:40;;;;;;;5.38;4.47;;;16.50;88.10;;;;;;5089945;28;20215;-89
2021/10/04 00:17:16;;;;;;;3.83;3.50;;;16.60;87.10;;;;;;5090681;28;20489;-88
2021/10/04 00:19:42;;;;;;;4.03;3.63;;;16.60;87.80;;;;;;5092137;28;20202;-89
2021/10/04 00:22:10;;;;;;;4.22;3.53;;;16.60;87.40;;;;;;5082294;28;20232;-89
2021/10/04 00:24:37;;;;;;;4.88;3.70;;;16.60;87.70;;;;;;5089285;28;20797;-88
2021/10/04 00:27:04;;;;;;;4.45;3.90;;;16.60;87.70;;;;;;5084442;28;20221;-89
2021/10/04 00:29:33;;;;;;;3.78;3.47;;;16.60;87.70;;;;;;5090774;28;20192;-88
2021/10/04 00:32:00;;;;;;;3.78;3.45;;;16.60;88.20;;;;;;5087652;28;20216;-88
2021/10/04 00:34:27;;;;;;;4.63;3.40;;;16.60;88.20;;;;;;5091803;28;20661;-89
2021/10/04 00:36:54;;;;;;;4.20;3.70;;;16.60;88.50;;;;;;5085228;28;20592;-89
2021/10/04 00:39:21;;;;;;;5.43;3.53;;;16.60;89.00;;;;;;5086966;28;20192;-88
2021/10/04 00:41:48;;;;;;;5.25;3.38;;;16.60;88.30;;;;;;5086504;28;20231;-88
2021/10/04 00:44:15;;;;;;;4.97;4.00;;;16.60;87.90;;;;;;5090199;28;20315;-88
2021/10/04 00:46:44;;;;;;;4.05;3.65;;;16.60;88.30;;;;;;5086411;28;20216;-90
2021/10/04 00:49:11;;;;;;;3.97;3.30;;;16.60;88.50;;;;;;5088909;28;20204;-89
2021/10/04 00:51:38;;;;;;;3.58;3.28;;;16.60;87.50;;;;;;5085981;28;20236;-88
2021/10/04 00:54:05;;;;;;;5.25;3.45;;;16.60;87.90;;;;;;5087512;28;20652;-89
2021/10/04 00:56:33;;;;;;;4.13;3.72;;;16.60;88.50;;;;;;5090496;28;20219;-88
2021/10/04 00:59:00;;;;;;;3.92;3.53;;;16.50;89.00;;;;;;5086714;28;20265;-88
2021/10/04 01:01:29;;;;;;;4.07;3.42;;;16.40;89.00;;;;;;5083439;28;20223;-89
2021/10/04 01:03:59;;;;;;;3.47;3.17;;;16.30;90.00;;;;;;5089510;28;20258;-88
2021/10/04 01:06:27;;;;;;;4.60;3.20;;;16.40;90.10;;;;;;5092226;28;20231;-88
2021/10/04 01:08:54;;;;;;;3.85;3.40;;;16.20;90.80;;;;;;5089324;28;20204;-88
2021/10/04 01:11:23;;;;;;;4.68;3.50;;;16.10;91.40;;;;;;5094039;28;20221;-88
2021/10/04 01:13:50;;;;;;;3.85;3.40;;;16.10;90.90;;;;;;5094915;28;20216;-88
2021/10/04 01:16:17;;;;;;;4.75;4.03;;;16.20;91.30;;;;;;5089942;28;20224;-88
2021/10/04 01:18:44;;;;;;;3.92;3.53;;;16.20;91.00;;;;;;5091330;28;20197;-87
2021/10/04 01:21:13;;;;;;;5.22;3.60;;;16.30;90.80;;;;;;5095812;28;20201;-91
2021/10/04 01:23:40;;;;;;;4.68;3.85;;;16.30;90.70;;;;;;5097210;28;20197;-88
2021/10/04 01:26:07;;;;;;;6.10;3.75;;;16.30;90.50;;;;;;5094441;28;20206;-87
2021/10/04 01:28:34;;;;;;;4.80;3.72;;;16.20;90.80;;;;;;5088574;28;20224;-88
2021/10/04 01:31:01;;;;;;;3.90;3.60;;;16.00;90.90;;;;;;5093721;28;20207;-89
2021/10/04 01:33:28;;;;;;;4.57;3.80;;;16.00;91.40;;;;;;5084798;28;20674;-89
2021/10/04 01:35:55;;;;;;;4.55;3.83;;;15.90;91.70;;;;;;5092656;28;20203;-88
2021/10/04 01:38:24;;;;;;;4.75;3.65;;;15.90;91.70;;;;;;5089613;28;20204;-88
2021/10/04 01:40:51;;;;;;;4.32;3.53;;;16.00;91.70;;;;;;5092248;28;20224;-88
2021/10/04 01:43:18;;;;;;;4.13;3.50;;;16.00;91.70;;;;;;5093565;28;20228;-88
2021/10/04 01:45:46;;;;;;;4.95;3.40;;;16.00;91.70;;;;;;5089697;28;20247;-89
2021/10/04 01:48:13;;;;;;;3.88;3.58;;;15.90;91.70;;;;;;5089948;28;20236;-88
2021/10/04 01:50:41;;;;;;;6.43;3.80;;;15.80;91.60;;;;;;5091319;28;20196;-89
2021/10/04 01:53:09;;;;;;;5.10;3.78;;;15.80;91.60;;;;;;5093671;28;20224;-88
2021/10/04 01:55:38;;;;;;;4.75;3.67;;;15.90;91.70;;;;;;5089027;28;20200;-88
2021/10/04 01:58:05;;;;;;;4.20;3.72;;;15.90;91.90;;;;;;5091642;28;20228;-88
2021/10/04 02:00:33;;;;;;;4.93;3.55;;;15.90;91.70;;;;;;5084778;28;20197;-88
2021/10/04 02:03:00;;;;;;;4.85;3.30;;;15.80;91.60;;;;;;5092115;28;20225;-88
2021/10/04 02:05:31;;;;;;;4.05;3.65;;;15.70;91.70;;;;;;5093813;28;20231;-89
2021/10/04 02:07:59;;;;;;;4.20;3.35;;;15.70;92.20;;;;;;5094384;28;20220;-89
2021/10/04 02:10:29;;;;;;;5.45;3.40;;;15.80;92.00;;;;;;5093040;28;20202;-89
2021/10/04 02:13:00;;;;;;;4.10;3.55;;;15.80;91.60;;;;;;5086426;28;20221;-88
2021/10/04 02:15:28;;;;;;;3.90;3.47;;;15.70;91.80;;;;;;5088603;28;20563;-88
2021/10/04 02:17:56;;;;;;;3.70;3.03;;;15.80;92.00;;;;;;5088056;28;20256;-88
2021/10/04 02:20:26;;;;;;;3.85;3.55;;;15.70;91.80;;;;;;5086920;28;20235;-86
2021/10/04 02:22:54;;;;;;;5.32;3.33;;;15.60;92.30;;;;;;5089378;28;20247;-87
2021/10/04 02:25:22;;;;;;;3.92;3.47;;;15.60;92.40;;;;;;5091205;28;20225;-87
2021/10/04 02:27:50;;;;;;;3.10;2.30;;;15.70;92.30;;;;;;5094475;28;20220;-86
2021/10/04 02:30:21;;;;;;;2.95;2.35;;;15.60;90.50;;;;;;5085936;28;20201;-87
2021/10/04 02:32:48;;;;;;;2.75;2.30;;;15.60;90.20;;;;;;5094199;28;20606;-87
2021/10/04 02:35:16;;;;;;;2.30;2.10;;;15.60;88.70;;;;;;5098873;28;20205;-87
2021/10/04 02:37:44;;;;;;;2.42;2.13;;;15.60;87.70;;;;;;5094155;28;20224;-86
2021/10/04 02:40:13;;;;;;;2.80;2.17;;;15.60;84.60;;;;;;5096291;28;20648;-88
2021/10/04 02:42:41;;;;;;;2.05;1.90;;;15.60;84.60;;;;;;5082002;28;20609;-88
2021/10/04 02:45:10;;;;;;;2.20;2.00;;;15.70;82.50;;;;;;5094942;28;20618;-86
2021/10/04 02:47:43;;;;;;;2.25;1.88;;;15.70;82.10;;;;;;5100428;28;20235;-87
2021/10/04 02:50:12;;;;;;;2.33;2.00;;;15.70;79.00;;;;;;5101208;28;20251;-88
2021/10/04 02:52:40;;;;;;;3.42;1.77;;;15.60;77.70;;;;;;5089680;28;20220;-88
2021/10/04 02:55:08;;;;;;;3.15;1.70;;;15.60;78.10;;;;;;5088767;28;20209;-88
2021/10/04 02:57:35;;;;;;;1.80;1.70;;;15.60;77.70;;;;;;5090309;28;20610;-88
2021/10/04 03:00:02;;;;;;;1.65;1.55;;;15.60;77.70;;;;;;5092559;28;20188;-87
2021/10/04 03:02:29;;;;;;;1.80;1.70;;;15.50;77.70;;;;;;5084717;28;20224;-88
2021/10/04 03:04:59;;;;;;;1.75;1.60;;;15.50;75.00;;;;;;5092286;28;20608;-88
2021/10/04 03:07:26;;;;;;;1.38;1.27;;;15.60;75.00;;;;;;5091552;28;20223;-87
2021/10/04 03:09:53;;;;;;;1.77;1.60;;;15.60;73.60;;;;;;5093080;28;20660;-88
2021/10/04 03:12:20;;;;;;;1.65;1.30;;;15.60;70.00;;;;;;5089626;28;20237;-88
2021/10/04 03:14:48;;;;;;;1.60;1.40;;;15.50;68.20;;;;;;5087054;28;20234;-88
2021/10/04 03:17:15;;;;;;;1.70;1.60;;;15.50;71.40;;;;;;5084056;28;20224;-88
2021/10/04 03:19:42;;;;;;;1.70;1.55;;;15.50;70.90;;;;;;5081888;28;20204;-86
2021/10/04 03:22:11;;;;;;;1.48;1.38;;;15.60;72.10;;;;;;5083274;28;20227;-88
2021/10/04 03:24:38;;;;;;;1.55;1.42;;;15.60;70.50;;;;;;5091521;28;20243;-87
2021/10/04 03:27:05;;;;;;;1.92;1.50;;;15.60;66.90;;;;;;5084261;28;20232;-88
2021/10/04 03:29:32;;;;;;;1.60;1.50;;;15.50;68.20;;;;;;5091799;28;20203;-88
2021/10/04 03:31:59;;;;;;;1.40;1.30;;;15.60;69.00;;;;;;5082062;28;20687;-87
2021/10/04 03:34:26;;;;;;;1.65;1.55;;;15.60;66.90;;;;;;5089178;28;20192;-88
2021/10/04 03:36:54;;;;;;;1.30;1.20;;;15.60;66.10;;;;;;5087190;28;20231;-88
2021/10/04 03:39:22;;;;;;;2.17;1.35;;;15.50;68.20;;;;;;5087102;28;20235;-88
2021/10/04 03:41:49;;;;;;;1.60;1.40;;;15.50;65.80;;;;;;5085652;28;20470;-87
2021/10/04 03:44:16;;;;;;;1.38;1.30;;;15.50;68.60;;;;;;5085112;28;20200;-88
2021/10/04 03:46:43;;;;;;;1.20;1.10;;;15.50;67.60;;;;;;5091770;28;20322;-88
2021/10/04 03:49:10;;;;;;;1.45;1.35;;;15.50;68.90;;;;;;5085223;28;20207;-90
2021/10/04 03:51:37;;;;;;;1.58;1.45;;;15.40;66.10;;;;;;5083545;28;20232;-88
2021/10/04 03:54:05;;;;;;;3.20;1.40;;;15.40;68.00;;;;;;5091704;28;20211;-88
2021/10/04 03:56:33;;;;;;;1.38;1.27;;;15.40;66.40;;;;;;5081954;28;20239;-88
2021/10/04 03:59:00;;;;;;;2.15;1.30;;;15.40;66.10;;;;;;5088577;28;20197;-88
2021/10/04 04:01:28;;;;;;;1.48;1.38;;;15.30;66.00;;;;;;5081767;28;20231;-88
2021/10/04 04:03:55;;;;;;;4.25;1.40;;;15.20;67.90;;;;;;5086022;28;20652;-88
2021/10/04 04:06:22;;;;;;;1.80;1.40;;;15.40;69.50;;;;;;5089738;28;20307;-88
2021/10/04 04:08:49;;;;;;;1.42;1.30;;;15.50;69.30;;;;;;5087309;28;20196;-88
2021/10/04 04:11:16;;;;;;;1.30;1.20;;;15.40;66.50;;;;;;5090237;28;20554;-88
2021/10/04 04:13:46;;;;;;;1.50;1.40;;;15.40;68.70;;;;;;5089492;28;20225;-88
2021/10/04 04:16:13;;;;;;;1.50;1.40;;;15.40;68.10;;;;;;5079874;28;20208;-88
2021/10/04 04:18:40;;;;;;;1.52;1.42;;;15.30;68.90;;;;;;5088750;28;20209;-88
2021/10/04 04:21:07;;;;;;;1.52;1.42;;;15.30;69.20;;;;;;5082699;28;20205;-88
2021/10/04 04:23:34;;;;;;;1.58;1.48;;;15.40;72.30;;;;;;5088332;28;20723;-88
2021/10/04 04:26:01;;;;;;;1.48;1.38;;;15.30;69.50;;;;;;5089993;28;20582;-88
2021/10/04 04:28:28;;;;;;;1.60;1.30;;;15.40;69.30;;;;;;5093555;28;20204;-88
2021/10/04 04:30:57;;;;;;;1.30;1.20;;;15.40;71.00;;;;;;5094027;28;20199;-88
2021/10/04 04:33:24;;;;;;;1.30;1.20;;;15.40;70.00;;;;;;5085521;28;20574;-88
2021/10/04 04:35:51;;;;;;;1.50;1.40;;;15.40;70.40;;;;;;5090242;28;20306;-88
2021/10/04 04:38:18;;;;;;;1.60;1.50;;;15.40;70.00;;;;;;5086265;28;20708;-88
2021/10/04 04:40:46;;;;;;;1.63;1.48;;;15.50;70.30;;;;;;5091465;28;20205;-88
2021/10/04 04:43:13;;;;;;;1.48;1.30;;;15.40;69.20;;;;;;5084752;28;20232;-88
2021/10/04 04:45:40;;;;;;;2.17;1.67;;;15.30;69.90;;;;;;5092584;28;20730;-87
2021/10/04 04:48:09;;;;;;;1.50;1.40;;;15.20;69.50;;;;;;5092925;28;20680;-87
2021/10/04 04:50:36;;;;;;;2.95;1.40;;;15.30;71.50;;;;;;5085500;28;20744;-89
2021/10/04 04:53:03;;;;;;;1.60;1.42;;;15.20;72.40;;;;;;5085123;28;20757;-89
2021/10/04 04:55:30;;;;;;;2.17;1.70;;;15.20;72.00;;;;;;5093830;28;20569;-87
2021/10/04 04:57:57;;;;;;;2.95;1.40;;;15.20;70.90;;;;;;5087780;28;20216;-88
2021/10/04 05:00:24;;;;;;;1.95;1.50;;;15.10;72.30;;;;;;5094043;28;20203;-87
2021/10/04 05:02:52;;;;;;;2.80;1.60;;;15.10;72.70;;;;;;5094580;28;20224;-88
2021/10/04 05:05:21;;;;;;;6.20;1.67;;;15.00;73.30;;;;;;5097632;28;20691;-88
2021/10/04 05:07:48;;;;;;;1.50;1.40;;;14.90;75.00;;;;;;5094625;28;20229;-87
2021/10/04 05:10:16;;;;;;;1.95;1.75;;;15.00;76.60;;;;;;5097279;28;20192;-88
2021/10/04 05:12:43;;;;;;;4.53;1.60;;;14.90;77.20;;;;;;5102399;28;20240;-88
2021/10/04 05:15:12;;;;;;;1.85;1.50;;;14.80;78.00;;;;;;5101767;28;20193;-86
2021/10/04 05:17:39;;;;;;;2.22;1.65;;;14.70;77.10;;;;;;5097998;28;20563;-88
2021/10/04 05:20:07;;;;;;;2.58;1.70;;;14.60;77.90;;;;;;5098267;28;20635;-88
2021/10/04 05:22:36;;;;;;;8.07;7.18;;;14.50;80.20;;;;;;5098865;28;20587;-87
2021/10/04 05:25:04;;;;;;;2.00;1.80;;;14.50;80.40;;;;;;5099910;28;20196;-89
2021/10/04 05:27:32;;;;;;;4.68;2.53;;;14.50;80.10;;;;;;5099777;28;20212;-90
2021/10/04 05:30:00;;;;;;;3.28;2.08;;;14.50;80.20;;;;;;5101944;28;20211;-86
2021/10/04 05:32:27;;;;;;;2.95;1.80;;;14.40;80.90;;;;;;5101085;28;20303;-89
2021/10/04 05:34:57;;;;;;;3.08;2.10;;;14.40;81.90;;;;;;5091730;28;20201;-89
2021/10/04 05:37:25;;;;;;;2.05;1.80;;;14.40;82.20;;;;;;5100005;28;20232;-88
2021/10/04 05:39:53;;;;;;;2.55;1.77;;;14.40;82.20;;;;;;5098304;28;20205;-87
2021/10/04 05:42:20;;;;;;;3.00;1.80;;;14.40;82.10;;;;;;5104409;28;20243;-88
2021/10/04 05:44:47;;;;;;;2.30;1.80;;;14.40;82.70;;;;;;5102293;28;20215;-88
2021/10/04 05:47:14;;;;;;;3.70;2.00;;;14.40;82.20;;;;;;5099936;28;20602;-86
2021/10/04 05:49:43;;;;;;;2.30;1.92;;;14.50;83.20;;;;;;5084179;28;20200;-87
2021/10/04 05:52:10;;;;;;;2.13;1.92;;;14.60;82.40;;;;;;5079175;28;20664;-87
2021/10/04 05:54:37;;;;;;;3.22;1.90;;;14.70;83.00;;;;;;5097686;28;20208;-90
2021/10/04 05:57:06;;;;;;;5.72;2.22;;;14.80;81.10;;;;;;5091973;28;20228;-89
2021/10/04 05:59:33;;;;;;;3.45;1.80;;;15.00;80.60;;;;;;5085165;28;20206;-90
2021/10/04 06:02:00;;;;;;;4.40;1.88;;;15.00;80.10;;;;;;5095774;28;20232;-89
2021/10/04 06:04:27;;;;;;;3.63;1.83;;;15.00;78.40;;;;;;5093211;28;20200;-90
2021/10/04 06:06:57;;;;;;;4.57;1.83;;;14.90;78.70;;;;;;5091723;28;20233;-89
2021/10/04 06:09:24;;;;;;;5.18;1.85;;;15.00;79.00;;;;;;5089844;28;20574;-89
2021/10/04 06:11:51;;;;;;;4.78;1.90;;;15.00;79.30;;;;;;5088522;28;20684;-90
2021/10/04 06:14:30;;;;;;;4.97;2.03;;;15.00;78.80;;;;;;5094996;28;20216;-89
2021/10/04 06:17:00;;;;;;;4.88;1.77;;;15.00;77.70;;;;;;5094268;28;20235;-88
2021/10/04 06:19:27;;;;;;;5.75;1.70;;;15.10;77.50;;;;;;5094771;28;20227;-87
2021/10/04 06:21:55;;;;;;;3.17;1.63;;;15.20;77.40;;;;;;5090714;28;20222;-86
2021/10/04 06:24:22;;;;;;;1.98;1.67;;;15.20;77.50;;;;;;5091945;28;20280;-87
2021/10/04 06:26:49;;;;;;;2.33;1.60;;;15.20;77.40;;;;;;5087803;28;20227;-88
2021/10/04 06:29:16;;;;;;;3.13;1.80;;;15.20;77.40;;;;;;5092916;28;20201;-88
2021/10/04 06:31:49;;;;;;;4.47;1.90;;;15.10;77.40;;;;;;5094374;28;20220;-88
2021/10/04 06:34:16;;;;;;;2.20;2.00;;;15.10;77.40;;;;;;5083432;28;20200;-88
2021/10/04 06:36:43;;;;;;;7.18;4.47;;;15.20;77.80;;;;;;5091485;28;20602;-88
2021/10/04 06:39:10;;;;;;;2.63;1.90;;;15.30;77.50;;;;;;5085511;28;20200;-88
2021/10/04 06:41:40;;;;;;;7.03;2.00;;;15.30;77.50;;;;;;5092158;28;20238;-88
2021/10/04 06:44:08;;;;;;;6.22;2.25;;;15.30;77.50;;;;;;5087632;28;20204;-88
2021/10/04 06:46:35;;;;;;;9.43;2.22;;;15.40;77.60;;;;;;5091898;28;20243;-88
2021/10/04 06:49:04;;;;;;;3.33;2.00;;;15.40;77.60;;;;;;5098525;28;20287;-87
2021/10/04 06:51:32;;;;;;;4.68;2.00;;;15.50;77.70;;;;;;5091084;28;20228;-90
2021/10/04 06:53:59;;;;;;;3.40;1.95;;;15.50;77.70;;;;;;5091750;28;20196;-89
2021/10/04 06:56:26;;;;;;;3.38;1.98;;;15.50;77.70;;;;;;5089076;28;20240;-89
2021/10/04 06:58:53;;;;;;;4.95;2.10;;;15.60;78.60;;;;;;5088754;28;20765;-90
2021/10/04 07:01:21;;;;;;;7.30;2.25;;;15.60;77.70;;;;;;5087266;28;20239;-89
2021/10/04 07:03:48;;;;;;;4.25;2.10;;;15.60;77.70;;;;;;5083767;28;20200;-90
2021/10/04 07:06:17;;;;;;;4.05;2.20;;;15.60;77.70;;;;;;5081997;28;20224;-89
2021/10/04 07:08:44;;;;;;;4.00;2.65;;;15.70;77.80;;;;;;5082891;28;20213;-89
2021/10/04 07:11:14;;;;;;;4.55;2.45;;;15.90;77.90;;;;;;5079512;28;20572;-90
2021/10/04 07:13:42;;;;;;;7.45;2.47;;;16.00;78.00;;;;;;5087134;28;20224;-90
2021/10/04 07:16:12;;;;;;;8.57;2.85;;;16.00;77.10;;;;;;5086522;28;20268;-88
2021/10/04 07:18:41;;;;;;;2.55;2.17;;;16.10;75.90;;;;;;5100342;28;20201;-85
2021/10/04 07:21:08;;;;;;;3.30;2.72;;;16.20;78.10;;;;;;5092180;28;20227;-88
2021/10/04 07:23:37;;;;;;;3.22;2.55;;;16.40;75.80;;;;;;5100778;28;20287;-87
2021/10/04 07:26:05;;;;;;;3.42;2.28;;;16.60;75.00;;;;;;5091588;28;20225;-85
2021/10/04 07:28:33;;;;;;;4.05;2.33;;;16.90;73.10;;;;;;5099015;28;20199;-85
2021/10/04 07:31:00;;;;;;;2.55;2.10;;;17.10;71.20;;;;;;5101070;28;20261;-85
2021/10/04 07:33:28;;;;;;;2.60;2.40;;;17.20;67.40;;;;;;5099973;28;20204;-88
2021/10/04 07:35:55;;;;;;;2.97;2.33;;;17.10;67.10;;;;;;5103113;28;20211;-86
2021/10/04 07:38:24;;;;;;;2.60;2.40;;;17.30;68.00;;;;;;5100170;28;20217;-85
2021/10/04 07:40:55;;;;;;;3.60;2.10;;;17.30;66.90;;;;;;5097077;28;20197;-85
2021/10/04 07:43:22;;;;;;;2.83;2.10;;;17.30;67.30;;;;;;5093499;28;20645;-84
2021/10/04 07:45:49;;;;;;;4.80;2.00;;;17.40;66.10;;;;;;5102912;28;20211;-85
2021/10/04 07:48:16;;;;;;;2.63;2.10;;;17.70;64.40;;;;;;5100139;28;20212;-86
2021/10/04 07:50:44;;;;;;;2.33;2.13;;;17.50;63.70;;;;;;5092494;28;20205;-85
2021/10/04 07:53:12;;;;;;;3.13;2.20;;;17.50;65.00;;;;;;5093730;28;20228;-84
2021/10/04 07:55:39;;;;;;;4.80;2.05;;;17.40;64.70;;;;;;5091759;28;20206;-84
2021/10/04 07:58:09;;;;;;;2.53;1.95;;;17.40;65.60;;;;;;5088816;28;20233;-87
2021/10/04 08:00:37;;;;;;;3.28;2.15;;;17.30;66.60;;;;;;5096147;28;20222;-89
2021/10/04 08:03:11;;;;;;;4.28;2.30;;;17.10;66.20;;;;;;5099363;28;20220;-85
2021/10/04 08:05:38;;;;;;;2.35;2.15;;;17.00;67.10;;;;;;5097218;28;20207;-86
2021/10/04 08:08:05;;;;;;;3.00;2.40;;;16.80;67.30;;;;;;5099093;28;20338;-86
2021/10/04 08:10:33;;;;;;;8.00;2.22;;;16.90;69.90;;;;;;5098329;28;20209;-87
2021/10/04 08:13:00;;;;;;;3.70;2.08;;;16.70;70.10;;;;;;5100415;28;20605;-86
2021/10/04 08:15:29;;;;;;;9.93;4.80;;;16.70;73.00;;;;;;5099910;28;20267;-89
2021/10/04 08:17:56;;;;;;;2.83;2.30;;;16.70;71.60;;;;;;5093451;28;20669;-85
2021/10/04 08:20:23;;;;;;;4.43;2.25;;;16.60;72.10;;;;;;5100381;28;20203;-85
2021/10/04 08:22:52;;;;;;;3.83;2.40;;;16.60;72.40;;;;;;5095961;28;20303;-85
2021/10/04 08:25:20;;;;;;;4.20;2.10;;;16.60;72.70;;;;;;5093637;28;20202;-88
2021/10/04 08:27:47;;;;;;;2.22;2.03;;;16.60;70.60;;;;;;5091902;28;20237;-85
2021/10/04 08:30:14;;;;;;;2.60;1.92;;;16.60;72.10;;;;;;5095666;28;20207;-87
2021/10/04 08:32:45;;;;;;;2.30;1.80;;;16.50;70.90;;;;;;5097105;28;20235;-86
2021/10/04 08:35:12;;;;;;;3.78;3.08;;;16.50;71.20;;;;;;5097635;28;20278;-87
2021/10/04 08:37:39;;;;;;;3.83;1.90;;;16.50;71.20;;;;;;5095263;28;20599;-86
2021/10/04 08:40:09;;;;;;;9.38;2.10;;;16.60;69.00;;;;;;5095308;28;20197;-87
2021/10/04 08:42:36;;;;;;;6.47;2.00;;;16.60;70.30;;;;;;5093364;28;20291;-87
2021/10/04 08:45:03;;;;;;;4.03;2.03;;;16.70;70.30;;;;;;5093523;28;20201;-87
2021/10/04 08:47:35;;;;;;;6.97;1.88;;;16.60;68.40;;;;;;5097125;28;20224;-87
2021/10/04 08:50:04;;;;;;;6.88;2.08;;;16.60;69.50;;;;;;5092255;28;20203;-89
2021/10/04 08:52:32;;;;;;;4.47;2.38;;;16.60;70.30;;;;;;5089653;28;20227;-87
2021/10/04 08:54:59;;;;;;;4.53;2.10;;;16.70;70.20;;;;;;5093111;28;20203;-89
2021/10/04 08:57:26;;;;;;;5.32;1.80;;;16.70;69.60;;;;;;5089623;28;20588;-89
2021/10/04 08:59:53;;;;;;;4.43;2.20;;;16.70;70.40;;;;;;5092602;28;20247;-90
2021/10/04 09:02:24;;;;;;;3.88;2.10;;;16.60;71.50;;;;;;5088155;28;20218;-86
2021/10/04 09:05:25;;;;;;;4.88;2.30;;;16.50;72.60;;;;;;5086832;28;20257;-89
2021/10/04 09:07:54;;;;;;;2.95;1.98;;;16.60;73.80;;;;;;5068560;28;20231;-88
2021/10/04 09:10:22;;;;;;;3.10;2.00;;;16.60;72.70;;;;;;5091567;28;20211;-90
2021/10/04 09:12:52;;;;;;;4.70;2.28;;;16.70;73.30;;;;;;5095029;28;20233;-88
2021/10/04 09:15:26;;;;;;;3.00;1.90;;;16.60;72.20;;;;;;5093642;28;20570;-87
2021/10/04 09:17:53;;;;;;;2.90;2.20;;;16.40;73.00;;;;;;5095972;28;20228;-89
2021/10/04 09:20:22;;;;;;;2.65;2.25;;;16.30;75.00;;;;;;5092139;28;20204;-90
2021/10/04 09:22:50;;;;;;;5.68;2.55;;;16.20;74.70;;;;;;5095372;28;20308;-89
2021/10/04 09:25:28;;;;;;;4.57;3.20;;;16.20;75.80;;;;;;5089481;28;20205;-89
2021/10/04 09:27:56;;;;;;;3.20;2.17;;;16.20;75.10;;;;;;5090821;28;20224;-89
2021/10/04 09:30:26;;;;;;;2.00;1.80;;;16.20;74.40;;;;;;5090188;28;20311;-89
2021/10/04 09:33:00;;;;;;;2.75;1.70;;;16.10;75.10;;;;;;5091506;28;20228;-89
2021/10/04 09:35:31;;;;;;;3.17;2.00;;;15.80;76.00;;;;;;5089142;28;20189;-88
2021/10/04 09:38:16;;;;;;;3.38;1.92;;;15.60;77.70;;;;;;5088103;28;20228;-88
2021/10/04 09:40:44;;;;;;;2.60;1.85;;;15.50;77.70;;;;;;5094819;28;20204;-87
2021/10/04 09:43:24;;;;;;;2.10;1.80;;;15.60;77.70;;;;;;5092405;28;20231;-87
2021/10/04 09:46:00;;;;;;;3.53;1.90;;;15.50;77.70;;;;;;5094077;28;20195;-87
2021/10/04 09:48:27;;;;;;;2.00;1.80;;;15.50;77.70;;;;;;5092133;28;20228;-86
2021/10/04 09:51:12;;;;;;;2.92;2.10;;;15.50;77.70;;;;;;5089105;28;20701;-87
2021/10/04 09:53:39;;;;;;;3.05;1.90;;;15.60;77.70;;;;;;5092633;28;20216;-88
2021/10/04 09:56:05;;;;;;;2.97;2.00;;;15.60;77.70;;;;;;5092700;28;20215;-90
2021/10/04 09:58:34;;;;;;;3.65;2.10;;;15.50;77.70;;;;;;5080273;28;20200;-86
2021/10/04 10:01:02;;;;;;;2.45;1.83;;;15.60;77.70;;;;;;5082430;28;20252;-88
2021/10/04 10:03:36;;;;;;;3.08;2.30;;;15.60;77.30;;;;;;5088561;28;20189;-88
2021/10/04 10:06:08;;;;;;;4.35;1.83;;;15.40;77.60;;;;;;5090610;28;20200;-88
2021/10/04 10:08:35;;;;;;;2.47;1.95;;;15.50;77.70;;;;;;5092669;28;20224;-88
2021/10/04 10:11:06;;;;;;;1.98;1.70;;;15.60;77.70;;;;;;5088647;28;20628;-88
2021/10/04 10:13:40;;;;;;;4.28;1.77;;;15.60;77.70;;;;;;5096497;28;20299;-88
2021/10/04 10:16:12;;;;;;;2.17;1.98;;;15.40;77.60;;;;;;5091612;28;20192;-87
2021/10/04 10:18:43;;;;;;;5.28;2.20;;;15.30;77.50;;;;;;5096298;28;20201;-87
2021/10/04 10:21:18;;;;;;;2.20;2.00;;;15.40;77.60;;;;;;5093694;28;20204;-92
2021/10/04 10:23:48;;;;;;;4.22;2.10;;;15.50;77.70;;;;;;5092029;28;20211;-88
2021/10/04 10:26:30;;;;;;;2.95;2.17;;;15.50;77.70;;;;;;5091059;28;20195;-87
2021/10/04 10:29:26;;;;;;;2.45;1.90;;;15.50;77.70;;;;;;5085526;28;20201;-90
2021/10/04 10:32:13;;;;;;;2.90;1.77;;;15.60;77.70;;;;;;5091829;28;20294;-88
2021/10/04 10:34:53;;;;;;;1.92;1.80;;;15.70;77.80;;;;;;5088576;28;20197;-88
2021/10/04 10:37:25;;;;;;;4.13;1.80;;;15.80;76.40;;;;;;5091879;28;20744;-87
2021/10/04 10:40:09;;;;;;;3.83;1.80;;;15.80;76.20;;;;;;5090526;28;20223;-87
2021/10/04 10:42:38;;;;;;;3.28;1.75;;;15.80;76.90;;;;;;5088063;28;20228;-86
2021/10/04 10:45:14;;;;;;;3.15;1.70;;;15.70;75.50;;;;;;5095456;28;20675;-86
2021/10/04 10:47:57;;;;;;;2.38;1.70;;;15.60;76.20;;;;;;5085251;28;20232;-86
2021/10/04 10:50:33;;;;;;;1.92;1.60;;;15.60;76.20;;;;;;5087898;28;20193;-88
2021/10/04 10:53:17;;;;;;;2.10;1.80;;;15.60;75.90;;;;;;5091655;28;20223;-87
2021/10/04 10:55:45;;;;;;;1.85;1.60;;;15.60;75.90;;;;;;5093021;28;20738;-85
2021/10/04 10:58:16;;;;;;;2.70;1.92;;;15.60;76.80;;;;;;5089276;28;20245;-86
2021/10/04 11:00:46;;;;;;;3.15;2.05;;;15.60;77.70;;;;;;5092889;28;20201;-87
2021/10/04 11:03:16;;;;;;;2.70;1.83;;;15.50;76.70;;;;;;5090910;28;20303;-87
2021/10/04 11:06:12;;;;;;;2.35;1.50;;;15.60;77.70;;;;;;5089547;28;20216;-87
2021/10/04 11:09:12;;;;;;;3.42;1.90;;;15.50;77.70;;;;;;5091275;28;20224;-89
2021/10/04 11:11:43;;;;;;;3.92;2.10;;;15.40;77.60;;;;;;5087581;28;20225;-88
2021/10/04 11:14:16;;;;;;;1.98;1.80;;;15.40;77.60;;;;;;5092238;28;20228;-89
2021/10/04 11:16:56;;;;;;;4.05;1.88;;;15.50;77.70;;;;;;5092243;28;20229;-87
2021/10/04 11:19:26;;;;;;;1.90;1.80;;;15.50;77.70;;;;;;5091420;28;20197;-88
2021/10/04 11:21:55;;;;;;;3.08;2.40;;;15.60;77.20;;;;;;5099009;27;20228;-88
2021/10/04 11:24:26;;;;;;;7.75;4.72;;;15.60;77.70;;;;;;5092221;28;20204;-88
2021/10/04 11:26:54;;;;;;;4.60;4.13;;;15.60;77.70;;;;;;5089474;28;20655;-89
2021/10/04 11:29:35;;;;;;;3.00;2.33;;;15.60;77.70;;;;;;5088669;28;20567;-88
2021/10/04 11:32:14;;;;;;;3.72;2.10;;;15.70;77.80;;;;;;5094078;28;20220;-87
2021/10/04 11:34:42;;;;;;;7.45;5.43;;;15.70;76.80;;;;;;5099648;28;20192;-86
2021/10/04 11:37:09;;;;;;;6.63;2.72;;;15.60;76.30;;;;;;5091493;28;20217;-89
2021/10/04 11:39:37;;;;;;;14.05;11.40;;;15.70;76.20;;;;;;5092850;28;20200;-89
2021/10/04 11:42:07;;;;;;;7.22;2.47;;;15.80;76.90;;;;;;5097534;28;20228;-87
2021/10/04 11:44:37;;;;;;;8.70;6.15;;;15.80;76.80;;;;;;5085799;28;20201;-87
2021/10/04 11:47:14;;;;;;;7.53;3.60;;;15.70;77.80;;;;;;5092574;28;20240;-88
2021/10/04 11:49:43;;;;;;;3.42;2.50;;;15.70;76.70;;;;;;5087958;28;20815;-88
2021/10/04 11:52:15;;;;;;;8.90;7.68;;;15.70;77.40;;;;;;5089664;28;20221;-88
2021/10/04 11:54:46;;;;;;;4.22;3.83;;;15.80;77.80;;;;;;5094509;28;20219;-89
2021/10/04 11:57:17;;;;;;;2.83;1.63;;;15.90;76.40;;;;;;5095542;28;20591;-88
2021/10/04 11:59:53;;;;;;;4.38;3.45;;;16.00;75.80;;;;;;5098661;28;20264;-87
2021/10/04 12:02:23;;;;;;;6.00;5.40;;;16.00;75.90;;;;;;5093190;28;20239;-86
2021/10/04 12:04:50;;;;;;;5.18;2.58;;;15.90;75.90;;;;;;5094812;28;20196;-87
2021/10/04 12:07:20;;;;;;;4.13;3.65;;;15.80;75.40;;;;;;5094106;28;20642;-88
2021/10/04 12:09:57;;;;;;;7.20;6.47;;;15.80;75.90;;;;;;5092340;28;20556;-86
2021/10/04 12:12:34;;;;;;;3.20;2.90;;;15.80;76.10;;;;;;5084825;28;20319;-88
2021/10/04 12:15:01;;;;;;;8.68;6.70;;;15.90;75.40;;;;;;5085787;28;20226;-88
2021/10/04 12:17:35;;;;;;;4.40;3.22;;;16.10;74.60;;;;;;5083039;28;20235;-88
2021/10/04 12:20:02;;;;;;;18.60;11.90;;;16.00;72.40;;;;;;5092861;28;20291;-87
2021/10/04 12:22:31;;;;;;;3.28;2.38;;;16.20;78.20;;;;;;5087333;28;20668;-89
2021/10/04 12:24:59;;;;;;;3.22;2.80;;;16.20;75.10;;;;;;5086837;28;20195;-87
2021/10/04 12:27:26;;;;;;;5.05;2.55;;;16.20;72.90;;;;;;5085242;28;20235;-87
2021/10/04 12:29:58;;;;;;;2.55;1.63;;;16.10;72.00;;;;;;5088542;28;20200;-89
2021/10/04 12:32:35;;;;;;;3.72;2.22;;;15.90;74.90;;;;;;5094655;28;21008;-89
2021/10/04 12:35:15;;;;;;;4.15;1.85;;;15.80;75.00;;;;;;5092761;28;20207;-89
2021/10/04 12:37:47;;;;;;;4.65;2.10;;;15.70;74.40;;;;;;5084321;28;20246;-88
2021/10/04 12:40:24;;;;;;;4.57;2.65;;;15.70;75.30;;;;;;5085327;28;20197;-87
2021/10/04 12:42:52;;;;;;;5.68;2.05;;;15.80;74.90;;;;;;5092382;28;20220;-87
2021/10/04 12:45:19;;;;;;;6.13;2.95;;;15.80;77.10;;;;;;5091376;28;20201;-87
2021/10/04 12:47:59;;;;;;;3.30;2.47;;;15.80;76.40;;;;;;5093382;28;20235;-87
2021/10/04 12:50:28;;;;;;;2.92;1.98;;;15.60;76.90;;;;;;5090856;28;20582;-87
2021/10/04 12:53:18;;;;;;;3.47;1.98;;;15.50;76.70;;;;;;5085820;28;20217;-88
2021/10/04 12:55:48;;;;;;;3.90;2.28;;;15.40;77.60;;;;;;5090199;28;20197;-90
2021/10/04 12:58:17;;;;;;;2.92;2.20;;;15.20;77.40;;;;;;5092411;28;20232;-89